Time;durP1;ratioP1;P1;durP2;ratioP2;P2;SDS_P1;SDS_P2;PMS_P1;PMS_P2;Temp;Humidity;BMP_temperature;BMP_pressure;BME280_temperature;BME280_humidity;BME280_pressure;Samples;Min_cycle;Max_cycle;Signal;HPM_P1;HPM_P2
2022/05/04 00:01:34;;;;;;;5.53;1.33;;;12.70;71.90;;;;;;5054433;28;20104;-71
2022/05/04 00:03:59;;;;;;;8.77;2.00;;;12.80;72.30;;;;;;5054064;28;20464;-71
2022/05/04 00:06:27;;;;;;;4.80;1.45;;;12.90;72.20;;;;;;5054334;28;20021;-71
2022/05/04 00:08:52;;;;;;;9.25;1.63;;;13.00;72.00;;;;;;5054245;28;20432;-72
2022/05/04 00:11:18;;;;;;;7.40;1.20;;;13.00;71.90;;;;;;5054172;28;20087;-71
2022/05/04 00:13:43;;;;;;;11.48;1.80;;;13.00;71.90;;;;;;5053969;28;20025;-71
2022/05/04 00:16:09;;;;;;;4.68;1.00;;;13.10;71.60;;;;;;5053892;28;20369;-71
2022/05/04 00:18:35;;;;;;;9.43;1.65;;;13.10;72.00;;;;;;5053935;28;20028;-71
2022/05/04 00:21:00;;;;;;;10.68;1.55;;;13.10;71.50;;;;;;5053622;28;20021;-72
2022/05/04 00:23:26;;;;;;;7.28;1.15;;;13.10;71.60;;;;;;5053734;28;20035;-71
2022/05/04 00:25:52;;;;;;;12.77;2.25;;;13.20;71.60;;;;;;5053116;28;20025;-71
2022/05/04 00:28:18;;;;;;;7.22;1.42;;;13.20;71.00;;;;;;5053585;28;20116;-71
2022/05/04 00:30:44;;;;;;;7.47;1.02;;;13.20;71.10;;;;;;5053517;28;20028;-71
2022/05/04 00:33:09;;;;;;;11.20;1.48;;;13.20;71.00;;;;;;5053496;28;20116;-71
2022/05/04 00:35:35;;;;;;;9.80;1.90;;;13.20;71.10;;;;;;5053818;28;20053;-71
2022/05/04 00:38:01;;;;;;;5.50;1.65;;;13.20;70.80;;;;;;5053775;28;20029;-71
2022/05/04 00:40:26;;;;;;;8.05;1.70;;;13.10;70.50;;;;;;5053278;28;20075;-71
2022/05/04 00:42:52;;;;;;;7.90;1.65;;;13.00;70.70;;;;;;5053623;28;20035;-71
2022/05/04 00:45:18;;;;;;;10.93;1.63;;;13.00;71.00;;;;;;5053213;28;20388;-71
2022/05/04 00:47:43;;;;;;;6.53;1.65;;;13.00;70.90;;;;;;5053601;28;20033;-71
2022/05/04 00:50:10;;;;;;;4.82;0.85;;;13.00;71.50;;;;;;5053384;28;20113;-71
2022/05/04 00:52:37;;;;;;;5.40;1.10;;;13.10;71.70;;;;;;5053532;28;20032;-71
2022/05/04 00:55:06;;;;;;;2.78;0.70;;;13.30;71.80;;;;;;5053362;28;20025;-71
2022/05/04 01:00:18;;;;;;;7.55;1.55;;;13.50;71.10;;;;;;5053362;28;20035;-71
2022/05/04 01:02:44;;;;;;;6.20;1.15;;;13.50;70.40;;;;;;5052867;28;20372;-71
2022/05/04 01:05:10;;;;;;;13.18;2.25;;;13.50;70.40;;;;;;5053456;28;20111;-71
2022/05/04 01:07:40;;;;;;;6.90;1.38;;;13.50;69.90;;;;;;5053003;28;20531;-71
2022/05/04 01:10:08;;;;;;;10.50;1.60;;;13.40;70.20;;;;;;5053175;28;20033;-71
2022/05/04 01:12:33;;;;;;;9.90;1.63;;;13.40;70.20;;;;;;5053072;28;20029;-71
2022/05/04 01:15:00;;;;;;;10.23;2.08;;;13.20;69.60;;;;;;5052799;28;20127;-71
2022/05/04 01:17:27;;;;;;;12.32;1.70;;;13.10;70.20;;;;;;5053018;28;20518;-71
2022/05/04 01:19:55;;;;;;;8.32;2.35;;;13.10;69.90;;;;;;5053053;28;20059;-71
2022/05/04 01:22:22;;;;;;;9.63;2.08;;;12.80;70.20;;;;;;5053000;28;20455;-71
2022/05/04 01:24:48;;;;;;;7.55;1.90;;;12.80;71.10;;;;;;5052949;28;20477;-71
2022/05/04 01:27:13;;;;;;;9.18;1.50;;;12.80;71.00;;;;;;5053285;28;20033;-71
2022/05/04 01:29:39;;;;;;;10.20;2.38;;;12.70;70.90;;;;;;5052920;28;20078;-71
2022/05/04 01:32:05;;;;;;;9.50;1.90;;;12.60;70.80;;;;;;5053217;28;20021;-71
2022/05/04 01:34:31;;;;;;;8.98;1.80;;;12.50;71.10;;;;;;5053102;28;20029;-71
2022/05/04 01:36:56;;;;;;;10.13;1.83;;;12.50;71.60;;;;;;5054647;28;20375;-71
2022/05/04 01:39:22;;;;;;;13.60;2.28;;;12.50;71.40;;;;;;5057008;28;20023;-71
2022/05/04 01:42:03;;;;;;;8.30;1.20;;;12.40;71.50;;;;;;5056930;28;20081;-71
2022/05/04 01:44:29;;;;;;;8.93;1.73;;;12.40;71.70;;;;;;5056733;28;20028;-71
2022/05/04 01:46:55;;;;;;;7.57;1.77;;;12.40;71.70;;;;;;5056745;28;20041;-71
2022/05/04 01:49:20;;;;;;;12.68;2.00;;;12.40;71.90;;;;;;5056887;28;20056;-71
2022/05/04 01:51:46;;;;;;;9.05;1.80;;;12.40;71.80;;;;;;5056891;28;20017;-71
2022/05/04 01:54:11;;;;;;;8.85;1.50;;;12.30;72.00;;;;;;5056692;28;20029;-71
2022/05/04 01:56:37;;;;;;;12.07;2.10;;;12.20;71.80;;;;;;5056475;28;20044;-71
2022/05/04 01:59:03;;;;;;;5.47;1.35;;;12.20;72.10;;;;;;5056363;28;20396;-71
2022/05/04 02:01:29;;;;;;;12.52;2.67;;;12.00;72.40;;;;;;5056828;28;20108;-71
2022/05/04 02:03:54;;;;;;;9.77;2.00;;;12.00;72.40;;;;;;5056716;28;20025;-71
2022/05/04 02:06:20;;;;;;;7.28;1.50;;;12.10;72.70;;;;;;5056658;28;20025;-71
2022/05/04 02:08:46;;;;;;;10.68;1.50;;;12.10;72.70;;;;;;5056329;28;20670;-71
2022/05/04 02:11:12;;;;;;;9.63;1.80;;;12.20;72.60;;;;;;5056212;28;20025;-71
2022/05/04 02:13:38;;;;;;;3.58;0.95;;;12.20;72.20;;;;;;5056254;28;20078;-71
2022/05/04 02:16:05;;;;;;;9.43;1.92;;;12.20;72.60;;;;;;5056127;28;20558;-71
2022/05/04 02:18:32;;;;;;;6.63;1.42;;;12.30;72.30;;;;;;5056365;28;20025;-71
2022/05/04 02:20:58;;;;;;;9.63;2.50;;;12.20;72.10;;;;;;5055977;28;20170;-71
2022/05/04 02:23:23;;;;;;;11.95;1.60;;;12.20;72.50;;;;;;5056233;28;20471;-71
2022/05/04 02:25:49;;;;;;;10.38;1.58;;;12.10;72.40;;;;;;5056044;28;20025;-71
2022/05/04 02:28:15;;;;;;;9.43;1.42;;;12.10;72.50;;;;;;5055798;28;20033;-71
2022/05/04 02:30:40;;;;;;;11.75;1.90;;;12.00;72.80;;;;;;5056155;28;20037;-72
2022/05/04 02:33:06;;;;;;;9.10;1.70;;;12.00;72.80;;;;;;5055906;28;20052;-72
2022/05/04 02:38:16;;;;;;;10.75;1.52;;;12.00;72.80;;;;;;5055908;28;20125;-72
2022/05/04 02:40:41;;;;;;;5.88;1.00;;;12.10;73.00;;;;;;5055591;28;20048;-72
2022/05/04 02:43:07;;;;;;;9.07;1.13;;;12.20;73.10;;;;;;5055421;28;20032;-72
2022/05/04 02:45:33;;;;;;;12.85;1.70;;;12.30;72.80;;;;;;5055667;28;20047;-71
2022/05/04 02:47:59;;;;;;;12.30;2.70;;;12.30;71.80;;;;;;5054934;28;20032;-72
2022/05/04 02:50:25;;;;;;;9.02;1.45;;;12.20;72.00;;;;;;5055635;28;20021;-72
2022/05/04 02:52:50;;;;;;;7.35;1.20;;;12.00;72.50;;;;;;5055550;28;20021;-71
2022/05/04 02:55:16;;;;;;;11.80;1.75;;;12.00;73.20;;;;;;5055392;28;20108;-72
2022/05/04 02:57:42;;;;;;;7.70;1.25;;;12.10;73.20;;;;;;5055594;28;20086;-72
2022/05/04 03:00:08;;;;;;;10.57;1.50;;;12.20;73.10;;;;;;5055324;28;20059;-72
2022/05/04 03:02:33;;;;;;;7.38;1.65;;;12.30;72.60;;;;;;5055290;28;20032;-72
2022/05/04 03:05:02;;;;;;;9.60;1.80;;;12.30;72.30;;;;;;5055415;28;20021;-72
2022/05/04 03:07:28;;;;;;;7.25;1.40;;;12.10;72.00;;;;;;5055139;28;20068;-72
2022/05/04 03:09:57;;;;;;;8.05;1.58;;;11.90;73.00;;;;;;5055121;28;20468;-72
2022/05/04 03:12:23;;;;;;;8.43;1.58;;;11.90;73.20;;;;;;5055183;28;20045;-72
2022/05/04 03:14:49;;;;;;;7.57;1.23;;;11.70;73.40;;;;;;5055093;28;20036;-72
2022/05/04 03:17:15;;;;;;;8.80;1.02;;;11.70;73.80;;;;;;5054998;28;20017;-72
2022/05/04 03:19:40;;;;;;;8.25;1.38;;;11.80;73.80;;;;;;5055119;28;20029;-72
2022/05/04 03:22:06;;;;;;;9.50;1.63;;;12.00;73.70;;;;;;5054993;28;20526;-72
2022/05/04 03:24:32;;;;;;;8.15;1.30;;;12.00;72.80;;;;;;5055113;28;20025;-72
2022/05/04 03:26:58;;;;;;;4.57;1.05;;;12.10;72.90;;;;;;5055104;28;20053;-72
2022/05/04 03:29:24;;;;;;;5.85;0.82;;;12.20;73.50;;;;;;5054689;28;20106;-72
2022/05/04 03:31:50;;;;;;;5.57;0.93;;;12.30;73.40;;;;;;5054867;28;20461;-72
2022/05/04 03:34:15;;;;;;;5.85;1.30;;;12.50;73.10;;;;;;5054992;28;20090;-72
2022/05/04 03:36:41;;;;;;;8.65;1.60;;;12.50;72.70;;;;;;5054624;28;20027;-71
2022/05/04 03:39:07;;;;;;;6.65;1.20;;;12.60;72.10;;;;;;5054702;28;20068;-71
2022/05/04 03:41:34;;;;;;;10.63;1.38;;;12.60;72.00;;;;;;5054928;28;20017;-72
2022/05/04 03:44:00;;;;;;;7.15;1.60;;;12.70;71.60;;;;;;5054381;28;20025;-71
2022/05/04 03:46:27;;;;;;;7.18;1.23;;;12.60;70.70;;;;;;5054508;28;20045;-72
2022/05/04 03:48:58;;;;;;;7.15;1.35;;;12.60;71.10;;;;;;5054661;28;20041;-72
2022/05/04 03:51:24;;;;;;;10.32;2.22;;;12.50;70.60;;;;;;5054663;28;20101;-72
2022/05/04 03:53:52;;;;;;;8.35;1.42;;;12.40;70.60;;;;;;5054590;28;20028;-72
2022/05/04 03:56:18;;;;;;;7.07;1.05;;;12.20;70.80;;;;;;5054248;28;20561;-71
2022/05/04 03:58:44;;;;;;;11.98;1.83;;;12.20;71.50;;;;;;5054169;28;20103;-72
2022/05/04 04:01:11;;;;;;;8.38;1.63;;;12.10;70.90;;;;;;5054247;28;20025;-72
2022/05/04 04:03:37;;;;;;;6.82;1.40;;;12.00;71.30;;;;;;5054083;28;20028;-72
2022/05/04 04:06:02;;;;;;;7.68;1.67;;;11.90;71.80;;;;;;5054280;28;20032;-72
2022/05/04 04:08:28;;;;;;;4.68;1.30;;;12.00;72.00;;;;;;5054159;28;20052;-71
2022/05/04 04:10:54;;;;;;;6.05;1.17;;;12.00;72.30;;;;;;5054106;28;20033;-72
2022/05/04 04:13:20;;;;;;;8.98;1.38;;;12.10;72.90;;;;;;5053905;28;20369;-72
2022/05/04 04:15:51;;;;;;;6.25;1.50;;;12.20;71.90;;;;;;5054240;28;20025;-72
2022/05/04 04:18:24;;;;;;;5.55;0.90;;;12.20;71.10;;;;;;5053878;28;20025;-71
2022/05/04 04:23:34;;;;;;;10.05;1.90;;;12.20;71.30;;;;;;5054150;28;20086;-71
2022/05/04 04:26:01;;;;;;;7.32;1.20;;;12.10;70.90;;;;;;5053749;28;20025;-72
2022/05/04 04:28:28;;;;;;;10.02;1.33;;;11.90;71.30;;;;;;5053398;28;20566;-72
2022/05/04 04:30:53;;;;;;;10.82;1.63;;;11.80;71.50;;;;;;5053635;28;20473;-72
2022/05/04 04:33:22;;;;;;;9.20;1.73;;;11.60;71.90;;;;;;5053594;28;20029;-72
2022/05/04 04:35:49;;;;;;;7.28;1.30;;;11.60;72.00;;;;;;5053526;28;20033;-72
2022/05/04 04:38:15;;;;;;;9.15;1.73;;;11.50;72.30;;;;;;5053482;28;20028;-72
2022/05/04 04:40:40;;;;;;;8.90;1.95;;;11.60;72.50;;;;;;5053788;28;20025;-72
2022/05/04 04:43:06;;;;;;;12.50;2.00;;;11.60;72.20;;;;;;5053719;28;20099;-71
2022/05/04 04:45:31;;;;;;;9.80;1.85;;;11.70;71.90;;;;;;5052990;28;20507;-72
2022/05/04 04:47:57;;;;;;;10.73;1.70;;;11.50;71.90;;;;;;5053319;28;20033;-72
2022/05/04 04:50:23;;;;;;;6.03;1.17;;;11.50;72.50;;;;;;5053518;28;20454;-71
2022/05/04 04:52:49;;;;;;;8.00;1.67;;;11.60;72.80;;;;;;5053332;28;20465;-72
2022/05/04 04:55:14;;;;;;;9.10;1.50;;;11.60;72.30;;;;;;5053463;28;20025;-72
2022/05/04 04:57:40;;;;;;;6.97;1.30;;;11.70;72.40;;;;;;5053332;28;20024;-72
2022/05/04 05:00:07;;;;;;;11.35;1.77;;;11.70;72.10;;;;;;5053494;28;20052;-72
2022/05/04 05:02:35;;;;;;;13.38;2.03;;;11.70;71.80;;;;;;5053123;28;20021;-72
2022/05/04 05:05:02;;;;;;;10.88;1.77;;;11.70;71.90;;;;;;5053343;28;20053;-72
2022/05/04 05:07:27;;;;;;;13.32;2.00;;;11.60;72.00;;;;;;5052847;28;20100;-71
2022/05/04 05:09:53;;;;;;;9.88;2.10;;;11.60;72.10;;;;;;5053002;28;20124;-72
2022/05/04 05:12:19;;;;;;;6.97;1.80;;;11.50;72.20;;;;;;5052410;28;20024;-71
2022/05/04 05:17:29;;;;;;;11.77;2.75;;;11.40;72.90;;;;;;5053116;28;20116;-72
2022/05/04 05:19:55;;;;;;;10.75;2.38;;;11.50;72.30;;;;;;5052772;28;20053;-72
2022/05/04 05:22:20;;;;;;;9.85;1.63;;;11.40;72.50;;;;;;5053006;28;20032;-72
2022/05/04 05:24:46;;;;;;;15.80;1.75;;;11.50;73.00;;;;;;5053204;28;20017;-72
2022/05/04 05:27:12;;;;;;;12.18;1.90;;;11.60;72.80;;;;;;5052841;28;20055;-72
2022/05/04 05:29:37;;;;;;;11.32;2.00;;;11.50;72.70;;;;;;5052719;28;20076;-72
2022/05/04 05:32:03;;;;;;;9.27;1.50;;;11.50;72.80;;;;;;5052458;28;20025;-72
2022/05/04 05:34:31;;;;;;;9.88;2.20;;;11.40;72.70;;;;;;5052964;28;20075;-71
2022/05/04 05:36:57;;;;;;;8.25;1.88;;;11.30;72.90;;;;;;5052911;28;20029;-72
2022/05/04 05:39:23;;;;;;;10.25;2.65;;;11.20;73.30;;;;;;5052738;28;20441;-71
2022/05/04 05:41:48;;;;;;;11.48;2.50;;;11.40;74.00;;;;;;5052195;28;20017;-72
2022/05/04 05:44:14;;;;;;;13.05;2.95;;;11.30;73.00;;;;;;5050345;28;20025;-74
2022/05/04 05:46:40;;;;;;;9.02;2.08;;;11.20;73.30;;;;;;5050665;28;20045;-74
2022/05/04 05:49:06;;;;;;;8.05;1.73;;;11.20;73.70;;;;;;5051144;28;20119;-73
2022/05/04 05:51:31;;;;;;;9.27;2.22;;;11.30;73.90;;;;;;5052140;28;20417;-74
2022/05/04 05:53:57;;;;;;;10.13;1.83;;;11.40;73.30;;;;;;5051000;28;20472;-73
2022/05/04 05:56:22;;;;;;;7.97;1.90;;;11.50;73.60;;;;;;5051656;28;20423;-73
2022/05/04 05:58:48;;;;;;;16.92;2.47;;;11.60;73.20;;;;;;5049533;28;20040;-72
2022/05/04 06:01:13;;;;;;;13.18;2.13;;;11.70;72.20;;;;;;5051910;28;20017;-76
2022/05/04 06:03:39;;;;;;;10.30;2.10;;;11.70;71.90;;;;;;5043341;28;20531;-76
2022/05/04 06:06:05;;;;;;;7.35;2.47;;;11.40;71.80;;;;;;5051670;28;20029;-76
2022/05/04 06:08:30;;;;;;;14.90;2.55;;;11.30;72.40;;;;;;5051431;28;20044;-75
2022/05/04 06:10:56;;;;;;;13.73;2.53;;;11.20;72.40;;;;;;5051787;28;20053;-75
2022/05/04 06:13:21;;;;;;;10.52;1.80;;;11.10;73.00;;;;;;5051317;28;20033;-75
2022/05/04 06:15:47;;;;;;;8.68;1.75;;;11.20;73.20;;;;;;5051503;28;20040;-76
2022/05/04 06:18:13;;;;;;;15.65;2.67;;;11.40;72.90;;;;;;5050716;28;20104;-76
2022/05/04 06:20:39;;;;;;;8.27;1.88;;;11.50;72.50;;;;;;5050350;28;20032;-74
2022/05/04 06:23:05;;;;;;;12.93;2.13;;;11.40;72.30;;;;;;5051091;28;20108;-74
2022/05/04 06:25:30;;;;;;;12.07;1.85;;;11.40;72.70;;;;;;5055237;28;20068;-73
2022/05/04 06:27:56;;;;;;;11.45;2.17;;;11.50;72.60;;;;;;5055172;28;20017;-73
2022/05/04 06:35:50;;;;;;;7.72;1.92;;;11.70;71.90;;;;;;5054884;28;20032;-73
2022/05/04 06:38:15;;;;;;;17.50;2.33;;;11.80;71.80;;;;;;5054124;28;20025;-74
2022/05/04 06:40:41;;;;;;;8.95;1.98;;;11.60;72.00;;;;;;5054440;28;20025;-72
2022/05/04 06:43:07;;;;;;;15.05;2.25;;;11.70;71.80;;;;;;5054674;28;20021;-74
2022/05/04 06:45:33;;;;;;;10.93;1.73;;;11.70;71.70;;;;;;5054609;28;20194;-75
2022/05/04 06:47:59;;;;;;;11.00;1.77;;;11.80;71.60;;;;;;5054608;28;20547;-73
2022/05/04 06:50:25;;;;;;;11.73;1.95;;;11.90;71.80;;;;;;5054865;28;20025;-73
2022/05/04 06:52:50;;;;;;;11.07;1.83;;;12.00;71.60;;;;;;5054828;28;20028;-73
2022/05/04 06:55:17;;;;;;;10.75;1.77;;;12.00;70.70;;;;;;5055035;28;20025;-73
2022/05/04 06:57:42;;;;;;;7.90;1.58;;;12.00;70.70;;;;;;5054693;28;20029;-73
2022/05/04 07:00:08;;;;;;;11.00;1.70;;;12.00;70.80;;;;;;5040784;28;20546;-72
2022/05/04 07:02:35;;;;;;;8.65;1.33;;;12.10;71.20;;;;;;5054539;28;20029;-72
2022/05/04 07:05:02;;;;;;;11.95;2.00;;;12.00;70.50;;;;;;5051925;28;20104;-73
2022/05/04 07:07:27;;;;;;;13.82;1.90;;;11.90;71.10;;;;;;5053622;28;20426;-73
2022/05/04 07:09:53;;;;;;;11.05;2.03;;;12.00;71.50;;;;;;5053386;28;20042;-73
2022/05/04 07:12:20;;;;;;;11.25;1.67;;;12.00;71.20;;;;;;5054964;28;20060;-73
2022/05/04 07:14:46;;;;;;;8.77;1.30;;;12.10;71.00;;;;;;5054387;28;20025;-73
2022/05/04 07:17:12;;;;;;;14.32;1.70;;;12.20;71.30;;;;;;5054309;28;20130;-73
2022/05/04 07:19:37;;;;;;;9.07;1.38;;;12.40;71.20;;;;;;5054371;28;20063;-72
2022/05/04 07:22:03;;;;;;;8.93;1.48;;;12.50;70.00;;;;;;5054131;28;20021;-72
2022/05/04 07:24:29;;;;;;;10.25;1.80;;;12.70;70.20;;;;;;5054107;28;20029;-72
2022/05/04 07:26:54;;;;;;;9.98;2.30;;;12.80;69.30;;;;;;5054529;28;20016;-73
2022/05/04 07:29:20;;;;;;;8.95;1.73;;;12.90;69.80;;;;;;5054248;28;20036;-72
2022/05/04 07:31:46;;;;;;;9.77;2.05;;;13.00;69.70;;;;;;5054026;28;20444;-72
2022/05/04 07:34:14;;;;;;;11.18;1.85;;;13.10;69.90;;;;;;5053514;28;20032;-72
2022/05/04 07:36:40;;;;;;;9.25;1.95;;;13.10;70.60;;;;;;5054091;28;20028;-72
2022/05/04 07:39:05;;;;;;;7.63;1.88;;;13.20;70.00;;;;;;5054519;28;20025;-72
2022/05/04 07:44:15;;;;;;;6.47;1.35;;;13.60;68.70;;;;;;5054067;28;20035;-72
2022/05/04 07:46:42;;;;;;;4.35;1.20;;;13.80;68.80;;;;;;5053872;28;20480;-72
2022/05/04 07:49:08;;;;;;;8.05;1.70;;;14.00;68.00;;;;;;5053409;28;20041;-72
2022/05/04 07:51:33;;;;;;;8.07;1.77;;;14.10;65.40;;;;;;5054188;28;20044;-72
2022/05/04 07:53:59;;;;;;;10.25;1.90;;;14.20;64.90;;;;;;5054303;28;20357;-72
2022/05/04 07:56:24;;;;;;;6.90;1.73;;;14.30;66.10;;;;;;5054335;28;20021;-72
2022/05/04 07:58:50;;;;;;;11.60;2.00;;;14.20;66.80;;;;;;5053351;28;20029;-72
2022/05/04 08:04:18;;;;;;;7.85;1.90;;;14.30;66.10;;;;;;5053115;28;20032;-73
2022/05/04 08:06:48;;;;;;;5.85;1.77;;;14.60;66.10;;;;;;5052996;28;20021;-72
2022/05/04 08:09:13;;;;;;;7.50;2.00;;;14.60;65.00;;;;;;5052818;28;20040;-73
2022/05/04 08:11:39;;;;;;;9.15;2.30;;;14.60;65.00;;;;;;5052648;28;20028;-74
2022/05/04 08:14:05;;;;;;;8.10;1.75;;;14.70;64.10;;;;;;5051946;28;20472;-74
2022/05/04 08:16:30;;;;;;;6.63;1.80;;;14.90;64.20;;;;;;5052671;28;20054;-75
2022/05/04 08:18:56;;;;;;;5.80;1.70;;;15.00;65.10;;;;;;5052278;28;20464;-74
2022/05/04 08:21:21;;;;;;;7.32;1.92;;;15.10;65.60;;;;;;5052237;28;20028;-73
2022/05/04 08:23:47;;;;;;;8.30;2.47;;;15.10;63.60;;;;;;5052388;28;20061;-72
2022/05/04 08:26:12;;;;;;;6.60;1.60;;;15.10;63.80;;;;;;5051858;28;20067;-72
2022/05/04 08:28:39;;;;;;;6.35;1.73;;;15.20;63.80;;;;;;5051120;28;20063;-72
2022/05/04 08:31:05;;;;;;;5.38;2.25;;;15.30;63.50;;;;;;5052033;28;20025;-73
2022/05/04 08:33:31;;;;;;;5.97;1.83;;;15.30;63.00;;;;;;5051946;28;20029;-73
2022/05/04 08:35:56;;;;;;;6.97;1.40;;;15.40;62.50;;;;;;5051830;28;20074;-71
2022/05/04 08:38:22;;;;;;;9.38;1.98;;;15.50;63.50;;;;;;5052197;28;20033;-71
2022/05/04 08:40:52;;;;;;;8.68;1.80;;;15.60;63.20;;;;;;5052368;28;20435;-71
2022/05/04 08:43:18;;;;;;;6.60;2.13;;;15.40;62.20;;;;;;5051917;28;20107;-72
2022/05/04 08:45:48;;;;;;;7.40;1.40;;;15.30;62.60;;;;;;5051112;28;20048;-71
2022/05/04 08:48:14;;;;;;;10.13;1.95;;;15.30;63.60;;;;;;5051573;28;20033;-72
2022/05/04 08:50:40;;;;;;;7.90;2.22;;;15.50;63.10;;;;;;5051702;28;20025;-72
2022/05/04 08:53:07;;;;;;;6.15;1.55;;;15.70;63.00;;;;;;5052074;28;20017;-72
2022/05/04 08:55:36;;;;;;;7.25;1.48;;;15.90;61.60;;;;;;5052279;28;20029;-72
2022/05/04 08:58:02;;;;;;;4.53;1.40;;;16.00;61.80;;;;;;5053310;28;20021;-72
2022/05/04 09:00:28;;;;;;;4.82;1.23;;;16.20;60.00;;;;;;5051751;28;20090;-72
2022/05/04 09:02:54;;;;;;;7.40;1.75;;;16.20;59.80;;;;;;5051723;28;20017;-73
2022/05/04 09:05:29;;;;;;;5.25;1.48;;;16.10;59.80;;;;;;5050617;28;20108;-73
2022/05/04 09:07:56;;;;;;;3.90;1.25;;;16.00;58.60;;;;;;5051333;28;20017;-72
2022/05/04 09:10:26;;;;;;;7.40;1.23;;;16.00;58.40;;;;;;5050986;28;20037;-71
2022/05/04 09:12:54;;;;;;;10.60;1.30;;;16.20;59.00;;;;;;5051540;28;20156;-71
2022/05/04 09:15:27;;;;;;;7.53;1.48;;;16.30;58.90;;;;;;5050771;28;20043;-75
2022/05/04 09:18:00;;;;;;;6.82;1.23;;;16.20;59.20;;;;;;5051386;28;20020;-72
2022/05/04 09:23:25;;;;;;;5.25;1.17;;;16.30;59.50;;;;;;5052872;28;20082;-71
2022/05/04 09:25:52;;;;;;;5.95;1.17;;;16.50;59.10;;;;;;5052056;28;20041;-72
2022/05/04 09:28:19;;;;;;;9.98;1.77;;;16.60;57.90;;;;;;5053953;28;20051;-72
2022/05/04 09:30:47;;;;;;;4.85;1.45;;;16.70;57.80;;;;;;5052877;28;20116;-72
2022/05/04 09:33:21;;;;;;;6.03;1.73;;;16.60;58.70;;;;;;5054054;28;20032;-72
2022/05/04 09:35:47;;;;;;;10.65;2.72;;;16.70;58.70;;;;;;5052791;28;20021;-72
2022/05/04 09:46:48;;;;;;;9.43;1.80;;;17.00;57.60;;;;;;5050316;28;20051;-83
2022/05/04 09:49:20;;;;;;;6.15;1.50;;;17.00;57.90;;;;;;5051532;28;20128;-86
2022/05/04 09:51:52;;;;;;;5.43;1.33;;;17.00;57.10;;;;;;5051444;28;20045;-88
2022/05/04 09:54:23;;;;;;;8.98;1.70;;;17.20;59.50;;;;;;5051506;28;20041;-84
2022/05/04 09:56:52;;;;;;;5.18;1.38;;;17.40;56.70;;;;;;5051534;28;20025;-77
2022/05/04 09:59:20;;;;;;;8.05;1.90;;;17.60;57.40;;;;;;5055363;28;20025;-80
2022/05/04 10:01:47;;;;;;;5.20;1.40;;;17.60;56.10;;;;;;5055854;28;20172;-84
2022/05/04 10:04:13;;;;;;;6.75;1.45;;;17.60;57.30;;;;;;5054601;28;20523;-88
2022/05/04 10:06:40;;;;;;;7.40;1.50;;;17.90;57.40;;;;;;5054986;28;20056;-81
2022/05/04 10:09:07;;;;;;;9.45;1.20;;;18.10;56.30;;;;;;5054752;28;20148;-83
2022/05/04 10:11:34;;;;;;;6.90;1.83;;;18.40;55.90;;;;;;5054995;28;20033;-84
2022/05/04 10:14:07;;;;;;;7.68;2.15;;;18.50;54.90;;;;;;5054513;28;20033;-84
2022/05/04 10:16:36;;;;;;;;;;;18.40;54.00;;;;;;5055775;28;20104;-84
2022/05/04 10:19:05;;;;;;;7.13;1.83;;;18.50;54.60;;;;;;5054412;28;19909;-75
2022/05/04 10:21:31;;;;;;;7.57;1.95;;;18.60;55.00;;;;;;5054774;28;20086;-73
2022/05/04 10:24:06;;;;;;;9.43;2.03;;;18.60;55.20;;;;;;5054600;28;20108;-72
2022/05/04 10:26:36;;;;;;;5.63;1.83;;;18.50;54.30;;;;;;5053425;28;20093;-72
2022/05/04 10:32:07;;;;;;;5.18;1.85;;;18.50;53.80;;;;;;5054449;28;20437;-72
2022/05/04 10:34:33;;;;;;;6.75;2.40;;;18.60;53.80;;;;;;5053857;28;20025;-72
2022/05/04 10:36:59;;;;;;;5.93;1.95;;;18.70;53.40;;;;;;5053971;28;20032;-72
2022/05/04 10:39:24;;;;;;;6.25;2.05;;;18.90;54.30;;;;;;5053751;28;20388;-73
2022/05/04 10:41:50;;;;;;;6.30;1.90;;;19.00;55.50;;;;;;5054533;28;20105;-72
2022/05/04 10:44:17;;;;;;;6.28;1.90;;;19.10;52.70;;;;;;5054619;28;20025;-72
2022/05/04 10:46:47;;;;;;;6.30;2.35;;;19.20;52.70;;;;;;5053879;28;20167;-72
2022/05/04 10:49:16;;;;;;;6.82;2.63;;;19.20;51.80;;;;;;5054082;28;20040;-72
2022/05/04 10:51:46;;;;;;;4.60;1.75;;;18.80;51.60;;;;;;5053918;28;20025;-72
2022/05/04 10:54:17;;;;;;;7.72;2.30;;;18.60;53.40;;;;;;5053818;28;20108;-73
2022/05/04 10:56:48;;;;;;;5.50;1.80;;;18.70;52.50;;;;;;5053950;28;20024;-72
2022/05/04 10:59:42;;;;;;;7.40;2.53;;;19.00;51.60;;;;;;5054155;28;20028;-72
2022/05/04 11:02:12;;;;;;;6.50;2.42;;;19.10;52.10;;;;;;5053907;28;20066;-73
2022/05/04 11:04:40;;;;;;;7.22;1.92;;;18.90;51.10;;;;;;5054833;28;20530;-72
2022/05/04 11:07:07;;;;;;;9.90;2.13;;;18.80;52.00;;;;;;5053809;28;20419;-73
2022/05/04 11:09:43;;;;;;;8.57;2.25;;;18.90;53.30;;;;;;5052792;28;20410;-73
2022/05/04 11:12:11;;;;;;;9.30;2.53;;;19.00;51.40;;;;;;5053453;28;20017;-72
2022/05/04 11:14:37;;;;;;;10.55;2.70;;;19.20;51.70;;;;;;5053552;28;20025;-76
2022/05/04 11:17:14;;;;;;;5.68;2.28;;;19.20;51.60;;;;;;5053167;28;20408;-76
2022/05/04 11:19:45;;;;;;;8.23;2.40;;;19.30;51.40;;;;;;5052518;28;20025;-76
2022/05/04 11:22:11;;;;;;;7.80;2.50;;;19.50;50.20;;;;;;5052251;28;20056;-76
2022/05/04 11:24:37;;;;;;;6.13;1.90;;;19.60;50.00;;;;;;5053464;28;20395;-76
2022/05/04 11:27:04;;;;;;;8.43;3.13;;;19.80;50.30;;;;;;5053189;28;20036;-76
2022/05/04 11:29:30;;;;;;;11.23;3.03;;;19.60;49.30;;;;;;5053151;28;20052;-76
2022/05/04 11:32:01;;;;;;;6.22;2.42;;;19.20;50.80;;;;;;5050351;28;20025;-75
2022/05/04 11:34:32;;;;;;;7.20;2.03;;;19.00;53.00;;;;;;5053582;28;20081;-72
2022/05/04 11:37:02;;;;;;;8.63;2.50;;;19.20;52.60;;;;;;5053086;28;20496;-73
2022/05/04 11:39:29;;;;;;;9.27;2.45;;;19.30;51.90;;;;;;5053458;28;20137;-73
2022/05/04 11:41:57;;;;;;;7.90;2.30;;;19.50;52.40;;;;;;5052431;28;20506;-73
2022/05/04 11:44:25;;;;;;;6.68;2.35;;;19.70;51.40;;;;;;5053353;28;20033;-73
2022/05/04 11:46:58;;;;;;;9.32;2.80;;;19.70;50.40;;;;;;5052481;28;20044;-72
2022/05/04 11:49:26;;;;;;;8.15;2.80;;;19.90;50.40;;;;;;5052450;28;20032;-73
2022/05/04 11:51:54;;;;;;;8.88;3.25;;;20.00;49.20;;;;;;5053042;28;20024;-72
2022/05/04 11:54:20;;;;;;;5.95;2.70;;;20.20;50.50;;;;;;5052450;28;20027;-73
2022/05/04 11:56:46;;;;;;;7.72;2.80;;;20.30;50.10;;;;;;5053209;28;20029;-74
2022/05/04 11:59:12;;;;;;;6.07;2.65;;;20.40;50.30;;;;;;5052761;28;20017;-73
2022/05/04 12:01:38;;;;;;;10.07;2.72;;;20.50;48.70;;;;;;5051287;28;20037;-73
2022/05/04 12:04:05;;;;;;;5.75;3.13;;;20.50;48.30;;;;;;5053828;28;20021;-73
2022/05/04 12:06:32;;;;;;;6.50;2.90;;;20.40;48.00;;;;;;5053767;28;20537;-74
2022/05/04 12:08:59;;;;;;;7.65;2.78;;;20.40;48.80;;;;;;5053871;28;20523;-74
2022/05/04 12:11:25;;;;;;;7.90;2.88;;;20.40;49.40;;;;;;5054248;28;20025;-74
2022/05/04 12:13:52;;;;;;;5.25;2.60;;;20.60;49.00;;;;;;5053665;28;20120;-71
2022/05/04 12:16:18;;;;;;;5.47;2.70;;;20.80;48.70;;;;;;5054151;28;20025;-71
2022/05/04 12:18:47;;;;;;;7.50;2.72;;;20.90;47.50;;;;;;5053820;28;20071;-71
2022/05/04 12:21:19;;;;;;;6.28;3.05;;;21.00;47.40;;;;;;5053945;28;20021;-74
2022/05/04 12:23:48;;;;;;;8.68;2.83;;;21.10;48.50;;;;;;5053759;28;20017;-74
2022/05/04 12:26:14;;;;;;;6.60;2.65;;;21.10;47.90;;;;;;5053263;28;20041;-71
2022/05/04 12:28:42;;;;;;;5.78;2.78;;;21.00;46.50;;;;;;5052663;28;20033;-72
2022/05/04 12:33:56;;;;;;;8.30;3.78;;;20.90;45.70;;;;;;5050933;28;20078;-72
2022/05/04 12:36:26;;;;;;;9.10;3.00;;;20.90;45.80;;;;;;5051759;28;20094;-72
2022/05/04 12:38:53;;;;;;;6.55;3.08;;;20.80;45.40;;;;;;5051807;28;20033;-72
2022/05/04 12:41:25;;;;;;;6.30;3.10;;;20.60;46.00;;;;;;5051885;28;20025;-71
2022/05/04 12:43:51;;;;;;;8.18;3.15;;;20.70;48.40;;;;;;5051742;28;20040;-72
2022/05/04 12:46:19;;;;;;;10.98;3.42;;;20.80;47.90;;;;;;5051587;28;20044;-72
2022/05/04 12:48:47;;;;;;;6.35;3.03;;;21.00;47.90;;;;;;5051791;28;20043;-72
2022/05/04 12:51:16;;;;;;;4.55;2.90;;;21.00;47.90;;;;;;5051930;28;20071;-71
2022/05/04 12:53:47;;;;;;;11.75;2.95;;;21.00;46.70;;;;;;5051761;28;20075;-71
2022/05/04 12:59:01;;;;;;;10.35;3.08;;;21.30;47.20;;;;;;5051272;28;20179;-73
2022/05/04 13:01:27;;;;;;;7.65;3.40;;;21.40;46.80;;;;;;5050190;28;20100;-73
2022/05/04 13:03:53;;;;;;;5.28;2.65;;;21.50;45.80;;;;;;5052338;28;20020;-75
2022/05/04 13:06:19;;;;;;;7.55;3.10;;;21.50;45.40;;;;;;5059966;28;20099;-74
2022/05/04 13:08:46;;;;;;;7.20;2.63;;;21.50;45.10;;;;;;5051906;28;20107;-75
2022/05/04 13:11:12;;;;;;;10.05;3.42;;;21.60;45.60;;;;;;5051385;28;20035;-73
2022/05/04 13:13:38;;;;;;;10.25;3.13;;;21.60;45.20;;;;;;5055127;28;20499;-73
2022/05/04 13:16:03;;;;;;;7.97;2.75;;;21.40;45.20;;;;;;5054489;28;20033;-72
2022/05/04 13:18:29;;;;;;;9.27;2.83;;;21.50;44.60;;;;;;5052834;28;20108;-73
2022/05/04 13:20:55;;;;;;;9.82;3.20;;;21.50;44.50;;;;;;5052974;28;20021;-73
2022/05/04 13:23:20;;;;;;;6.10;2.58;;;21.60;46.30;;;;;;5052724;28;20104;-72
2022/05/04 13:25:46;;;;;;;13.38;2.55;;;21.60;46.00;;;;;;5051529;28;20109;-73